createdAt,value
2018-12-01T00:00:54.046Z,6.80
2018-12-01T00:03:29.762Z,7.00
2018-12-01T00:06:03.258Z,8.60
2018-12-01T00:08:35.953Z,7.60
2018-12-01T00:11:08.622Z,7.70
2018-12-01T00:13:45.173Z,7.60
2018-12-01T00:16:21.581Z,7.97
2018-12-01T00:18:58.846Z,7.87
2018-12-01T00:21:36.379Z,7.80
2018-12-01T00:24:10.442Z,6.70
2018-12-01T00:26:47.483Z,6.63
2018-12-01T00:29:23.915Z,5.83
2018-12-01T00:32:00.146Z,8.03
2018-12-01T00:34:36.288Z,7.90
2018-12-01T00:37:09.833Z,6.93
2018-12-01T00:39:43.055Z,8.77
2018-12-01T00:42:15.668Z,9.13
2018-12-01T00:44:53.161Z,8.10
2018-12-01T00:47:26.834Z,8.50
2018-12-01T00:50:00.517Z,8.00
2018-12-01T00:52:33.747Z,8.63
2018-12-01T00:55:11.686Z,8.87
2018-12-01T00:57:48.144Z,7.80
2018-12-01T01:00:25.775Z,8.00
2018-12-01T01:03:01.091Z,8.70
2018-12-01T01:05:35.000Z,7.67
2018-12-01T01:08:07.492Z,7.80
2018-12-01T01:10:43.534Z,7.70
2018-12-01T01:13:16.005Z,8.67
2018-12-01T01:15:52.275Z,8.83
2018-12-01T01:18:25.783Z,8.50
2018-12-01T01:20:59.279Z,7.03
2018-12-01T01:23:32.464Z,8.40
2018-12-01T01:26:10.085Z,7.90
2018-12-01T01:28:42.543Z,7.87
2018-12-01T01:31:14.946Z,7.97
2018-12-01T01:33:50.499Z,9.20
2018-12-01T01:36:26.811Z,9.50
2018-12-01T01:39:00.225Z,8.27
2018-12-01T01:41:33.362Z,8.73
2018-12-01T01:44:10.182Z,9.30
2018-12-01T01:46:46.393Z,9.10
2018-12-01T01:49:19.722Z,8.37
2018-12-01T01:51:54.042Z,8.50
2018-12-01T01:54:31.248Z,9.13
2018-12-01T01:57:04.631Z,8.67
2018-12-01T01:59:41.284Z,7.33
2018-12-01T02:02:14.074Z,7.93
2018-12-01T02:04:49.705Z,8.97
2018-12-01T02:07:23.152Z,7.93
2018-12-01T02:09:56.149Z,8.23
2018-12-01T02:12:32.739Z,9.70
2018-12-01T02:15:10.507Z,8.10
2018-12-01T02:17:47.663Z,7.93
2018-12-01T02:20:24.761Z,8.73
2018-12-01T02:23:00.369Z,7.57
2018-12-01T02:25:33.346Z,7.60
2018-12-01T02:28:09.117Z,7.60
2018-12-01T02:30:42.299Z,8.63
2018-12-01T02:33:16.539Z,8.37
2018-12-01T02:35:53.226Z,7.40
2018-12-01T02:38:29.336Z,8.60
2018-12-01T02:41:02.265Z,7.73
2018-12-01T02:43:39.081Z,9.43
2018-12-01T02:46:29.609Z,7.37
2018-12-01T02:49:02.230Z,8.13
2018-12-01T02:51:35.179Z,8.20
2018-12-01T02:54:12.007Z,9.00
2018-12-01T02:56:46.355Z,7.67
2018-12-01T02:59:20.573Z,8.53
2018-12-01T03:01:57.044Z,7.33
2018-12-01T03:04:30.206Z,8.60
2018-12-01T03:07:05.786Z,8.50
2018-12-01T03:09:40.009Z,7.63
2018-12-01T03:12:17.052Z,7.73
2018-12-01T03:14:53.531Z,7.77
2018-12-01T03:17:27.106Z,7.93
2018-12-01T03:20:03.280Z,8.37
2018-12-01T03:22:36.321Z,8.23
2018-12-01T03:25:22.548Z,7.90
2018-12-01T03:27:58.164Z,7.63
2018-12-01T03:30:33.862Z,7.73
2018-12-01T03:33:06.487Z,8.53
2018-12-01T03:35:40.054Z,8.00
2018-12-01T03:38:13.468Z,7.83
2018-12-01T03:40:49.641Z,8.83
2018-12-01T03:43:23.003Z,7.77
2018-12-01T03:45:58.739Z,7.37
2018-12-01T03:48:31.929Z,9.00
2018-12-01T03:51:05.122Z,7.23
2018-12-01T03:53:38.416Z,7.57
2018-12-01T03:56:11.024Z,7.80
2018-12-01T03:58:44.233Z,8.00
2018-12-01T04:01:19.547Z,7.50
2018-12-01T04:03:54.235Z,8.90
2018-12-01T04:06:29.999Z,9.70
2018-12-01T04:09:20.480Z,8.30
2018-12-01T04:11:55.938Z,7.10
2018-12-01T04:14:32.749Z,8.77
2018-12-01T04:17:05.328Z,7.90
2018-12-01T04:19:40.906Z,9.23
2018-12-01T04:22:18.206Z,8.70
2018-12-01T04:24:51.383Z,9.20
2018-12-01T04:27:26.854Z,7.80
2018-12-01T04:29:59.744Z,9.23
2018-12-01T04:32:31.548Z,8.43
2018-12-01T04:35:08.150Z,9.57
2018-12-01T04:37:41.542Z,9.83
2018-12-01T04:40:17.577Z,8.93
2018-12-01T04:42:50.084Z,8.47
2018-12-01T04:45:27.246Z,8.20
2018-12-01T04:48:03.561Z,7.47
2018-12-01T04:50:36.682Z,8.70
2018-12-01T04:53:10.011Z,8.37
2018-12-01T04:55:46.440Z,8.77
2018-12-01T04:58:23.698Z,8.77
2018-12-01T05:00:56.456Z,8.97
2018-12-01T05:03:33.013Z,9.00
2018-12-01T05:06:08.404Z,8.47
2018-12-01T05:08:40.891Z,9.27
2018-12-01T05:11:13.775Z,9.37
2018-12-01T05:13:47.022Z,9.00
2018-12-01T05:16:23.203Z,9.37
2018-12-01T05:18:56.133Z,9.57
2018-12-01T05:21:32.309Z,9.70
2018-12-01T05:24:07.716Z,7.40
2018-12-01T05:26:44.418Z,9.70
2018-12-01T05:29:17.964Z,9.50
2018-12-01T05:31:51.168Z,8.50
2018-12-01T05:34:23.811Z,9.87
2018-12-01T05:36:57.591Z,8.30
2018-12-01T05:39:30.206Z,9.67
2018-12-01T05:42:03.600Z,9.90
2018-12-01T05:44:40.703Z,8.50
2018-12-01T05:47:15.200Z,10.20
2018-12-01T05:49:51.656Z,10.53
2018-12-01T05:52:27.652Z,8.67
2018-12-01T05:55:03.641Z,8.67
2018-12-01T05:57:40.609Z,10.30
2018-12-01T06:00:14.886Z,8.80
2018-12-01T06:02:50.955Z,9.27
2018-12-01T06:05:23.871Z,8.60
2018-12-01T06:07:59.739Z,9.57
2018-12-01T06:10:32.995Z,10.87
2018-12-01T06:13:06.167Z,9.43
2018-12-01T06:15:43.903Z,8.80
2018-12-01T06:18:17.316Z,7.43
2018-12-01T06:20:51.418Z,10.10
2018-12-01T06:23:24.699Z,8.43
2018-12-01T06:25:59.125Z,8.03
2018-12-01T06:28:31.878Z,7.80
2018-12-01T06:31:07.560Z,8.10
2018-12-01T06:33:45.874Z,7.60
2018-12-01T06:36:20.199Z,9.63
2018-12-01T06:41:45.334Z,9.57
2018-12-01T06:44:24.234Z,7.43
2018-12-01T06:46:57.847Z,7.97
2018-12-01T06:49:30.792Z,7.43
2018-12-01T06:52:03.755Z,8.47
2018-12-01T06:54:43.071Z,9.30
2018-12-01T06:57:16.046Z,7.33
2018-12-01T06:59:48.951Z,7.90
2018-12-01T07:02:21.654Z,7.67
2018-12-01T07:04:59.558Z,7.60
2018-12-01T07:07:36.699Z,7.43
2018-12-01T07:10:10.722Z,7.23
2018-12-01T07:12:42.167Z,8.07
2018-12-01T07:15:20.886Z,8.50
2018-12-01T07:20:39.204Z,8.67
2018-12-01T07:23:17.102Z,7.33
2018-12-01T07:25:48.855Z,7.83
2018-12-01T07:28:22.974Z,7.07
2018-12-01T07:30:59.874Z,7.57
2018-12-01T07:36:17.853Z,7.50
2018-12-01T07:38:54.017Z,6.57
2018-12-01T07:41:30.271Z,7.43
2018-12-01T07:44:07.315Z,8.03
2018-12-01T07:46:40.551Z,6.77
2018-12-01T07:49:13.752Z,6.80
2018-12-01T07:51:47.147Z,7.10
2018-12-01T08:03:36.268Z,6.50
2018-12-01T08:06:09.308Z,6.63
2018-12-01T08:08:42.508Z,6.00
2018-12-01T08:20:04.312Z,5.83
2018-12-01T08:37:49.476Z,5.93
2018-12-01T08:40:26.575Z,5.93
2018-12-01T08:43:03.976Z,6.63
2018-12-01T08:51:42.848Z,5.93
2018-12-01T09:03:07.172Z,7.17
2018-12-01T09:23:27.393Z,6.87
2018-12-01T09:26:02.787Z,8.07
2018-12-01T09:28:36.752Z,10.50
2018-12-01T09:40:17.788Z,8.40
2018-12-01T10:18:45.335Z,8.77
2018-12-01T10:21:17.389Z,10.27
2018-12-01T11:00:30.177Z,6.23
2018-12-01T11:03:08.317Z,7.47
2018-12-01T11:05:44.172Z,6.73
2018-12-01T11:08:17.562Z,6.67
2018-12-01T11:13:40.323Z,6.80
2018-12-01T11:16:26.105Z,7.47
2018-12-01T11:25:08.487Z,5.47
2018-12-01T14:12:26.637Z,4.47
2018-12-01T14:14:59.122Z,4.80
2018-12-01T14:17:33.458Z,4.57
2018-12-01T14:20:16.751Z,4.23
2018-12-01T14:22:51.983Z,5.27
2018-12-01T15:10:29.720Z,3.63
2018-12-01T15:18:58.265Z,3.67
2018-12-01T15:36:37.396Z,3.50
2018-12-01T15:39:21.202Z,3.60
2018-12-01T15:42:02.703Z,3.77
2018-12-01T15:44:39.078Z,4.30
2018-12-01T15:47:12.284Z,3.47
2018-12-01T15:49:50.157Z,4.03
2018-12-01T15:55:19.275Z,6.90
2018-12-01T15:57:55.482Z,4.90
2018-12-01T16:00:28.596Z,4.10
2018-12-01T16:03:07.756Z,4.60
2018-12-01T16:05:53.185Z,3.77
2018-12-01T16:08:36.881Z,3.80
2018-12-01T16:17:24.527Z,4.40
2018-12-01T16:19:59.149Z,3.63
2018-12-01T16:22:35.229Z,4.47
2018-12-01T16:25:09.626Z,3.50
2018-12-01T16:27:44.071Z,3.73
2018-12-01T16:38:36.796Z,2.97
2018-12-01T16:41:28.967Z,3.43
2018-12-01T16:46:54.675Z,4.23
2018-12-01T16:49:28.861Z,3.43
2018-12-01T16:52:06.558Z,2.73
2018-12-01T19:27:45.194Z,2.90
2018-12-01T19:30:22.403Z,3.77
2018-12-01T19:33:00.749Z,4.33
2018-12-01T19:35:34.878Z,3.10
2018-12-01T19:38:09.108Z,3.40
2018-12-01T19:40:45.393Z,3.20
2018-12-01T19:43:17.867Z,3.50
2018-12-01T19:45:50.896Z,3.83
2018-12-01T19:48:28.037Z,2.97
2018-12-01T19:51:02.227Z,3.83
2018-12-01T19:53:37.129Z,3.50
2018-12-01T19:56:10.071Z,3.90
2018-12-01T19:58:43.311Z,3.40
2018-12-01T20:01:21.018Z,3.67
2018-12-01T20:03:54.748Z,3.90
2018-12-01T20:06:28.382Z,3.57
2018-12-01T20:09:02.163Z,5.13
2018-12-01T20:11:35.114Z,4.10
2018-12-01T20:14:15.049Z,3.80
2018-12-01T20:16:51.930Z,4.20
2018-12-01T20:19:24.881Z,3.87
2018-12-01T20:21:58.019Z,3.53
2018-12-01T20:24:34.859Z,3.47
2018-12-01T20:27:08.554Z,3.93
2018-12-01T20:29:45.612Z,3.63
2018-12-01T20:32:16.864Z,4.27
2018-12-01T20:34:50.288Z,4.57
2018-12-01T20:37:23.615Z,4.40
2018-12-01T20:40:00.226Z,5.10
2018-12-01T20:42:40.540Z,4.07
2018-12-01T20:45:14.589Z,4.23
2018-12-01T20:47:50.163Z,3.83
2018-12-01T20:50:24.002Z,3.87
2018-12-01T20:52:59.398Z,4.33
2018-12-01T20:55:36.217Z,4.50
2018-12-01T20:58:13.591Z,4.23
2018-12-01T21:00:47.297Z,4.37
2018-12-01T21:03:24.006Z,3.57
2018-12-01T21:05:57.441Z,3.77
2018-12-01T21:08:28.756Z,4.13
2018-12-01T21:11:06.204Z,3.53
2018-12-01T21:13:38.878Z,3.83
2018-12-01T21:16:13.422Z,3.77
2018-12-01T21:18:47.595Z,3.40
2018-12-01T21:21:24.897Z,4.20
2018-12-01T21:23:57.919Z,4.20
2018-12-01T21:26:30.915Z,3.90
2018-12-01T21:29:07.832Z,3.70
2018-12-01T21:31:40.935Z,4.50
2018-12-01T21:34:17.145Z,4.70
2018-12-01T21:36:53.567Z,4.13
2018-12-01T21:39:26.490Z,4.57
2018-12-01T21:42:03.190Z,5.37
2018-12-01T21:44:39.034Z,5.17
2018-12-01T21:47:15.529Z,4.83
2018-12-01T21:49:48.686Z,4.77
2018-12-01T21:52:21.790Z,4.10
2018-12-01T21:54:55.115Z,5.17
2018-12-01T21:57:31.345Z,5.53
2018-12-01T22:00:08.683Z,5.70
2018-12-01T22:02:42.529Z,6.00
2018-12-01T22:05:19.447Z,7.10
2018-12-01T22:07:55.242Z,5.63
2018-12-01T22:10:32.030Z,5.80
2018-12-01T22:13:05.277Z,6.73
2018-12-01T22:15:39.553Z,6.67
2018-12-01T22:18:15.209Z,6.03
2018-12-01T22:20:49.213Z,6.50
2018-12-01T22:23:22.099Z,7.03
2018-12-01T22:25:54.599Z,6.70
2018-12-01T22:28:35.238Z,7.57
2018-12-01T22:31:08.200Z,7.00
2018-12-01T22:33:43.961Z,7.43
2018-12-01T22:36:22.018Z,7.17
2018-12-01T22:38:55.171Z,6.60
2018-12-01T22:41:30.797Z,6.30
2018-12-01T22:44:08.271Z,6.10
2018-12-01T22:46:43.082Z,7.40
2018-12-01T22:49:19.072Z,6.73
2018-12-01T22:51:52.311Z,6.93
2018-12-01T22:54:26.806Z,7.13
2018-12-01T22:57:00.189Z,6.27
2018-12-01T22:59:36.208Z,7.53
2018-12-01T23:02:12.778Z,7.83
2018-12-01T23:04:46.594Z,6.17
2018-12-01T23:07:19.703Z,6.80
2018-12-01T23:09:57.039Z,6.57
2018-12-01T23:12:30.300Z,6.40
2018-12-01T23:15:08.154Z,5.87
2018-12-01T23:17:44.827Z,6.83
2018-12-01T23:20:19.973Z,6.93
2018-12-01T23:22:53.428Z,6.63
2018-12-01T23:25:27.849Z,6.67
2018-12-01T23:28:01.049Z,7.00
2018-12-01T23:30:33.875Z,6.53
2018-12-01T23:33:09.249Z,6.77
2018-12-01T23:35:45.128Z,6.13
2018-12-01T23:38:18.274Z,5.60
2018-12-01T23:40:53.107Z,6.67
2018-12-01T23:43:26.658Z,6.03
2018-12-01T23:46:00.082Z,6.60
2018-12-01T23:48:33.172Z,6.07
2018-12-01T23:51:09.544Z,6.80
2018-12-01T23:53:44.163Z,6.40
2018-12-01T23:56:19.491Z,6.07
2018-12-01T23:58:52.081Z,5.83
